sensor_id;sensor_type;location;lat;lon;timestamp;P1;durP1;ratioP1;P2;durP2;ratioP2
62687;SDS011;48752;51.056;17.056;2022-10-22T00:00:22;15.07;;;10.00;;
62687;SDS011;48752;51.056;17.056;2022-10-22T00:02:48;13.98;;;10.32;;
62687;SDS011;48752;51.056;17.056;2022-10-22T00:05:13;15.93;;;10.77;;
62687;SDS011;48752;51.056;17.056;2022-10-22T00:07:38;17.13;;;11.80;;
62687;SDS011;48752;51.056;17.056;2022-10-22T00:10:04;18.70;;;11.40;;
62687;SDS011;48752;51.056;17.056;2022-10-22T00:12:32;19.60;;;11.38;;
62687;SDS011;48752;51.056;17.056;2022-10-22T00:14:57;17.17;;;10.57;;
62687;SDS011;48752;51.056;17.056;2022-10-22T00:17:23;17.55;;;10.60;;
62687;SDS011;48752;51.056;17.056;2022-10-22T00:19:48;15.27;;;9.85;;
62687;SDS011;48752;51.056;17.056;2022-10-22T00:22:14;23.63;;;10.80;;
62687;SDS011;48752;51.056;17.056;2022-10-22T00:24:42;16.48;;;9.93;;
62687;SDS011;48752;51.056;17.056;2022-10-22T00:27:13;15.80;;;10.85;;
62687;SDS011;48752;51.056;17.056;2022-10-22T00:29:38;19.75;;;10.70;;
62687;SDS011;48752;51.056;17.056;2022-10-22T00:32:04;14.82;;;9.65;;
62687;SDS011;48752;51.056;17.056;2022-10-22T00:34:35;15.63;;;10.20;;
62687;SDS011;48752;51.056;17.056;2022-10-22T00:37:00;14.00;;;10.30;;
62687;SDS011;48752;51.056;17.056;2022-10-22T00:39:26;17.45;;;10.48;;
62687;SDS011;48752;51.056;17.056;2022-10-22T00:41:52;19.77;;;10.38;;
62687;SDS011;48752;51.056;17.056;2022-10-22T00:47:21;26.13;;;10.40;;
62687;SDS011;48752;51.056;17.056;2022-10-22T00:49:47;15.35;;;10.40;;
62687;SDS011;48752;51.056;17.056;2022-10-22T00:52:14;20.88;;;11.75;;
62687;SDS011;48752;51.056;17.056;2022-10-22T00:54:39;14.68;;;10.52;;
62687;SDS011;48752;51.056;17.056;2022-10-22T00:57:05;19.75;;;11.63;;
62687;SDS011;48752;51.056;17.056;2022-10-22T00:59:33;17.77;;;10.73;;
62687;SDS011;48752;51.056;17.056;2022-10-22T01:01:58;19.77;;;11.35;;
62687;SDS011;48752;51.056;17.056;2022-10-22T01:04:23;20.98;;;11.30;;
62687;SDS011;48752;51.056;17.056;2022-10-22T01:06:49;18.25;;;11.45;;
62687;SDS011;48752;51.056;17.056;2022-10-22T01:09:37;20.35;;;10.57;;
62687;SDS011;48752;51.056;17.056;2022-10-22T01:17:33;19.98;;;10.43;;
62687;SDS011;48752;51.056;17.056;2022-10-22T01:22:42;15.40;;;10.35;;
62687;SDS011;48752;51.056;17.056;2022-10-22T01:25:25;15.73;;;10.18;;
62687;SDS011;48752;51.056;17.056;2022-10-22T01:30:54;15.88;;;10.60;;
62687;SDS011;48752;51.056;17.056;2022-10-22T01:33:22;17.75;;;10.52;;
62687;SDS011;48752;51.056;17.056;2022-10-22T01:35:49;20.90;;;10.48;;
62687;SDS011;48752;51.056;17.056;2022-10-22T01:38:16;16.08;;;10.85;;
62687;SDS011;48752;51.056;17.056;2022-10-22T01:40:44;15.45;;;11.02;;
62687;SDS011;48752;51.056;17.056;2022-10-22T01:43:10;22.88;;;11.05;;
62687;SDS011;48752;51.056;17.056;2022-10-22T01:45:37;17.30;;;10.98;;
62687;SDS011;48752;51.056;17.056;2022-10-22T01:48:11;18.23;;;11.35;;
62687;SDS011;48752;51.056;17.056;2022-10-22T01:56:06;15.98;;;9.77;;
62687;SDS011;48752;51.056;17.056;2022-10-22T01:58:43;16.05;;;9.80;;
62687;SDS011;48752;51.056;17.056;2022-10-22T02:01:24;17.67;;;10.70;;
62687;SDS011;48752;51.056;17.056;2022-10-22T02:03:55;19.63;;;9.65;;
62687;SDS011;48752;51.056;17.056;2022-10-22T02:06:24;18.85;;;10.05;;
62687;SDS011;48752;51.056;17.056;2022-10-22T02:08:51;14.25;;;10.27;;
62687;SDS011;48752;51.056;17.056;2022-10-22T02:11:17;17.52;;;11.00;;
62687;SDS011;48752;51.056;17.056;2022-10-22T02:13:47;15.25;;;10.05;;
62687;SDS011;48752;51.056;17.056;2022-10-22T02:16:23;17.33;;;10.20;;
62687;SDS011;48752;51.056;17.056;2022-10-22T02:18:53;14.65;;;10.05;;
62687;SDS011;48752;51.056;17.056;2022-10-22T02:21:18;14.52;;;9.65;;
62687;SDS011;48752;51.056;17.056;2022-10-22T02:23:44;17.88;;;10.18;;
62687;SDS011;48752;51.056;17.056;2022-10-22T02:26:14;18.80;;;11.18;;
62687;SDS011;48752;51.056;17.056;2022-10-22T02:28:46;14.77;;;9.45;;
62687;SDS011;48752;51.056;17.056;2022-10-22T02:33:48;14.60;;;10.07;;
62687;SDS011;48752;51.056;17.056;2022-10-22T02:36:16;17.70;;;11.15;;
62687;SDS011;48752;51.056;17.056;2022-10-22T02:38:42;19.35;;;10.65;;
62687;SDS011;48752;51.056;17.056;2022-10-22T02:41:08;14.73;;;9.68;;
62687;SDS011;48752;51.056;17.056;2022-10-22T02:43:40;15.52;;;10.13;;
62687;SDS011;48752;51.056;17.056;2022-10-22T02:46:07;16.73;;;10.82;;
62687;SDS011;48752;51.056;17.056;2022-10-22T02:48:33;14.23;;;9.30;;
62687;SDS011;48752;51.056;17.056;2022-10-22T02:50:58;18.05;;;10.68;;
62687;SDS011;48752;51.056;17.056;2022-10-22T02:53:24;21.25;;;11.18;;
62687;SDS011;48752;51.056;17.056;2022-10-22T02:55:49;16.27;;;9.75;;
62687;SDS011;48752;51.056;17.056;2022-10-22T02:58:14;15.57;;;10.55;;
62687;SDS011;48752;51.056;17.056;2022-10-22T03:00:40;17.25;;;10.80;;
62687;SDS011;48752;51.056;17.056;2022-10-22T03:03:05;15.88;;;9.70;;
62687;SDS011;48752;51.056;17.056;2022-10-22T03:05:30;17.65;;;10.07;;
62687;SDS011;48752;51.056;17.056;2022-10-22T03:07:56;17.02;;;10.95;;
62687;SDS011;48752;51.056;17.056;2022-10-22T03:10:21;15.77;;;10.63;;
62687;SDS011;48752;51.056;17.056;2022-10-22T03:12:47;19.73;;;10.88;;
62687;SDS011;48752;51.056;17.056;2022-10-22T03:15:12;14.77;;;9.85;;
62687;SDS011;48752;51.056;17.056;2022-10-22T03:17:37;14.57;;;10.07;;
62687;SDS011;48752;51.056;17.056;2022-10-22T03:20:03;17.73;;;10.65;;
62687;SDS011;48752;51.056;17.056;2022-10-22T03:22:28;15.13;;;10.38;;
62687;SDS011;48752;51.056;17.056;2022-10-22T03:24:57;15.00;;;9.35;;
62687;SDS011;48752;51.056;17.056;2022-10-22T03:27:24;19.42;;;10.98;;
62687;SDS011;48752;51.056;17.056;2022-10-22T03:29:52;14.57;;;10.00;;
62687;SDS011;48752;51.056;17.056;2022-10-22T03:32:19;15.35;;;10.02;;
62687;SDS011;48752;51.056;17.056;2022-10-22T03:34:45;15.15;;;9.63;;
62687;SDS011;48752;51.056;17.056;2022-10-22T03:37:10;15.30;;;10.32;;
62687;SDS011;48752;51.056;17.056;2022-10-22T03:39:36;12.85;;;9.43;;
62687;SDS011;48752;51.056;17.056;2022-10-22T03:42:02;17.77;;;9.85;;
62687;SDS011;48752;51.056;17.056;2022-10-22T03:44:28;16.40;;;10.13;;
62687;SDS011;48752;51.056;17.056;2022-10-22T03:46:54;16.40;;;9.77;;
62687;SDS011;48752;51.056;17.056;2022-10-22T03:49:19;18.15;;;10.38;;
62687;SDS011;48752;51.056;17.056;2022-10-22T03:51:44;15.60;;;10.90;;
62687;SDS011;48752;51.056;17.056;2022-10-22T03:54:10;17.73;;;10.15;;
62687;SDS011;48752;51.056;17.056;2022-10-22T03:56:35;20.40;;;11.13;;
62687;SDS011;48752;51.056;17.056;2022-10-22T03:59:01;16.92;;;10.00;;
62687;SDS011;48752;51.056;17.056;2022-10-22T04:01:27;23.70;;;11.23;;
62687;SDS011;48752;51.056;17.056;2022-10-22T04:03:53;18.70;;;11.23;;
62687;SDS011;48752;51.056;17.056;2022-10-22T04:06:19;15.65;;;11.25;;
62687;SDS011;48752;51.056;17.056;2022-10-22T04:08:44;17.55;;;10.30;;
62687;SDS011;48752;51.056;17.056;2022-10-22T04:11:10;22.48;;;10.43;;
62687;SDS011;48752;51.056;17.056;2022-10-22T04:13:36;17.10;;;9.93;;
62687;SDS011;48752;51.056;17.056;2022-10-22T04:16:08;15.77;;;9.45;;
62687;SDS011;48752;51.056;17.056;2022-10-22T04:18:35;18.35;;;10.10;;
62687;SDS011;48752;51.056;17.056;2022-10-22T04:21:00;17.48;;;10.95;;
62687;SDS011;48752;51.056;17.056;2022-10-22T04:23:26;14.75;;;9.80;;
62687;SDS011;48752;51.056;17.056;2022-10-22T04:25:56;15.82;;;9.38;;
62687;SDS011;48752;51.056;17.056;2022-10-22T04:28:25;15.20;;;9.95;;
62687;SDS011;48752;51.056;17.056;2022-10-22T04:30:51;15.85;;;9.23;;
62687;SDS011;48752;51.056;17.056;2022-10-22T04:33:16;17.25;;;10.73;;
62687;SDS011;48752;51.056;17.056;2022-10-22T04:35:41;20.67;;;10.43;;
62687;SDS011;48752;51.056;17.056;2022-10-22T04:38:07;15.85;;;10.73;;
62687;SDS011;48752;51.056;17.056;2022-10-22T04:40:32;16.25;;;9.77;;
62687;SDS011;48752;51.056;17.056;2022-10-22T04:42:58;16.25;;;10.43;;
62687;SDS011;48752;51.056;17.056;2022-10-22T04:45:23;18.73;;;9.90;;
62687;SDS011;48752;51.056;17.056;2022-10-22T04:47:48;17.23;;;10.38;;
62687;SDS011;48752;51.056;17.056;2022-10-22T04:50:14;14.07;;;10.07;;
62687;SDS011;48752;51.056;17.056;2022-10-22T04:52:39;17.38;;;11.13;;
62687;SDS011;48752;51.056;17.056;2022-10-22T04:55:05;20.00;;;11.35;;
62687;SDS011;48752;51.056;17.056;2022-10-22T04:57:30;16.13;;;10.32;;
62687;SDS011;48752;51.056;17.056;2022-10-22T04:59:56;18.55;;;10.93;;
62687;SDS011;48752;51.056;17.056;2022-10-22T05:02:21;17.80;;;10.68;;
62687;SDS011;48752;51.056;17.056;2022-10-22T05:04:46;17.45;;;10.57;;
62687;SDS011;48752;51.056;17.056;2022-10-22T05:07:12;18.65;;;10.43;;
62687;SDS011;48752;51.056;17.056;2022-10-22T05:09:41;15.48;;;10.23;;
62687;SDS011;48752;51.056;17.056;2022-10-22T05:12:06;12.48;;;9.50;;
62687;SDS011;48752;51.056;17.056;2022-10-22T05:14:32;16.52;;;10.95;;
62687;SDS011;48752;51.056;17.056;2022-10-22T05:16:57;15.35;;;10.07;;
62687;SDS011;48752;51.056;17.056;2022-10-22T05:19:24;19.52;;;11.20;;
62687;SDS011;48752;51.056;17.056;2022-10-22T05:21:54;21.15;;;11.65;;
62687;SDS011;48752;51.056;17.056;2022-10-22T05:24:22;17.90;;;10.40;;
62687;SDS011;48752;51.056;17.056;2022-10-22T05:26:54;17.90;;;10.82;;
62687;SDS011;48752;51.056;17.056;2022-10-22T05:29:21;15.45;;;10.50;;
62687;SDS011;48752;51.056;17.056;2022-10-22T05:31:47;20.60;;;11.30;;
62687;SDS011;48752;51.056;17.056;2022-10-22T05:34:12;21.02;;;10.80;;
62687;SDS011;48752;51.056;17.056;2022-10-22T05:36:38;17.75;;;11.27;;
62687;SDS011;48752;51.056;17.056;2022-10-22T05:39:04;23.13;;;11.15;;
62687;SDS011;48752;51.056;17.056;2022-10-22T05:41:33;15.70;;;10.32;;
62687;SDS011;48752;51.056;17.056;2022-10-22T05:43:59;16.25;;;10.98;;
62687;SDS011;48752;51.056;17.056;2022-10-22T05:46:26;20.88;;;12.07;;
62687;SDS011;48752;51.056;17.056;2022-10-22T05:48:56;19.27;;;11.02;;
62687;SDS011;48752;51.056;17.056;2022-10-22T05:51:27;17.67;;;10.80;;
62687;SDS011;48752;51.056;17.056;2022-10-22T05:53:54;17.42;;;10.32;;
62687;SDS011;48752;51.056;17.056;2022-10-22T05:56:21;37.58;;;13.73;;
62687;SDS011;48752;51.056;17.056;2022-10-22T05:58:47;19.08;;;10.88;;
62687;SDS011;48752;51.056;17.056;2022-10-22T06:01:20;24.17;;;11.65;;
62687;SDS011;48752;51.056;17.056;2022-10-22T06:03:55;18.17;;;11.32;;
62687;SDS011;48752;51.056;17.056;2022-10-22T06:09:06;17.55;;;10.52;;
62687;SDS011;48752;51.056;17.056;2022-10-22T06:11:44;18.77;;;11.43;;
62687;SDS011;48752;51.056;17.056;2022-10-22T06:14:11;23.67;;;12.02;;
62687;SDS011;48752;51.056;17.056;2022-10-22T06:16:36;20.55;;;11.38;;
62687;SDS011;48752;51.056;17.056;2022-10-22T06:19:02;22.38;;;10.50;;
62687;SDS011;48752;51.056;17.056;2022-10-22T06:21:28;21.83;;;12.10;;
62687;SDS011;48752;51.056;17.056;2022-10-22T06:23:55;22.92;;;11.60;;
62687;SDS011;48752;51.056;17.056;2022-10-22T06:26:21;31.05;;;11.63;;
62687;SDS011;48752;51.056;17.056;2022-10-22T06:28:46;29.00;;;12.73;;
62687;SDS011;48752;51.056;17.056;2022-10-22T06:31:11;74.18;;;19.80;;
62687;SDS011;48752;51.056;17.056;2022-10-22T06:33:39;48.83;;;14.40;;
62687;SDS011;48752;51.056;17.056;2022-10-22T06:36:11;30.40;;;13.18;;
62687;SDS011;48752;51.056;17.056;2022-10-22T06:38:39;16.55;;;10.02;;
62687;SDS011;48752;51.056;17.056;2022-10-22T06:41:12;17.08;;;11.18;;
62687;SDS011;48752;51.056;17.056;2022-10-22T06:43:39;22.38;;;12.90;;
62687;SDS011;48752;51.056;17.056;2022-10-22T06:46:06;22.10;;;11.75;;
62687;SDS011;48752;51.056;17.056;2022-10-22T06:48:33;15.73;;;10.57;;
62687;SDS011;48752;51.056;17.056;2022-10-22T06:51:02;17.55;;;11.20;;
62687;SDS011;48752;51.056;17.056;2022-10-22T06:53:29;19.65;;;11.55;;
62687;SDS011;48752;51.056;17.056;2022-10-22T06:55:54;25.63;;;13.38;;
62687;SDS011;48752;51.056;17.056;2022-10-22T06:58:20;25.20;;;14.05;;
62687;SDS011;48752;51.056;17.056;2022-10-22T07:00:45;24.73;;;14.70;;
62687;SDS011;48752;51.056;17.056;2022-10-22T07:03:11;25.23;;;14.60;;
62687;SDS011;48752;51.056;17.056;2022-10-22T07:05:37;23.15;;;14.00;;
62687;SDS011;48752;51.056;17.056;2022-10-22T07:08:03;21.83;;;13.60;;
62687;SDS011;48752;51.056;17.056;2022-10-22T07:10:29;17.77;;;11.35;;
62687;SDS011;48752;51.056;17.056;2022-10-22T07:12:54;20.88;;;12.95;;
62687;SDS011;48752;51.056;17.056;2022-10-22T07:15:19;18.38;;;11.00;;
62687;SDS011;48752;51.056;17.056;2022-10-22T07:17:45;19.48;;;12.15;;
62687;SDS011;48752;51.056;17.056;2022-10-22T07:20:12;19.92;;;12.43;;
62687;SDS011;48752;51.056;17.056;2022-10-22T07:22:38;24.73;;;14.00;;
62687;SDS011;48752;51.056;17.056;2022-10-22T07:25:03;24.80;;;14.18;;
62687;SDS011;48752;51.056;17.056;2022-10-22T07:27:29;24.45;;;12.98;;
62687;SDS011;48752;51.056;17.056;2022-10-22T07:29:54;21.55;;;13.05;;
62687;SDS011;48752;51.056;17.056;2022-10-22T07:32:20;37.78;;;13.80;;
62687;SDS011;48752;51.056;17.056;2022-10-22T07:34:45;22.73;;;13.88;;
62687;SDS011;48752;51.056;17.056;2022-10-22T07:37:10;30.38;;;13.70;;
62687;SDS011;48752;51.056;17.056;2022-10-22T07:39:36;25.05;;;13.20;;
62687;SDS011;48752;51.056;17.056;2022-10-22T07:42:01;16.65;;;11.88;;
62687;SDS011;48752;51.056;17.056;2022-10-22T07:44:27;23.77;;;12.68;;
62687;SDS011;48752;51.056;17.056;2022-10-22T07:46:52;21.15;;;11.70;;
62687;SDS011;48752;51.056;17.056;2022-10-22T07:49:17;25.90;;;11.88;;
62687;SDS011;48752;51.056;17.056;2022-10-22T07:51:43;21.10;;;12.73;;
62687;SDS011;48752;51.056;17.056;2022-10-22T07:54:08;23.20;;;12.98;;
62687;SDS011;48752;51.056;17.056;2022-10-22T07:56:33;24.13;;;12.55;;
62687;SDS011;48752;51.056;17.056;2022-10-22T07:58:59;28.67;;;13.30;;
62687;SDS011;48752;51.056;17.056;2022-10-22T08:01:24;26.27;;;13.70;;
62687;SDS011;48752;51.056;17.056;2022-10-22T08:03:49;35.28;;;13.77;;
62687;SDS011;48752;51.056;17.056;2022-10-22T08:06:15;31.10;;;14.13;;
62687;SDS011;48752;51.056;17.056;2022-10-22T08:08:41;27.73;;;12.98;;
62687;SDS011;48752;51.056;17.056;2022-10-22T08:11:09;32.60;;;14.10;;
62687;SDS011;48752;51.056;17.056;2022-10-22T08:13:35;20.35;;;12.43;;
62687;SDS011;48752;51.056;17.056;2022-10-22T08:16:00;22.52;;;12.52;;
62687;SDS011;48752;51.056;17.056;2022-10-22T08:18:26;21.98;;;12.93;;
62687;SDS011;48752;51.056;17.056;2022-10-22T08:20:52;24.80;;;13.32;;
62687;SDS011;48752;51.056;17.056;2022-10-22T08:23:17;21.67;;;12.23;;
62687;SDS011;48752;51.056;17.056;2022-10-22T08:25:43;21.77;;;13.43;;
62687;SDS011;48752;51.056;17.056;2022-10-22T08:28:08;24.13;;;12.20;;
62687;SDS011;48752;51.056;17.056;2022-10-22T08:30:33;23.55;;;12.77;;
62687;SDS011;48752;51.056;17.056;2022-10-22T08:33:01;21.58;;;13.15;;
62687;SDS011;48752;51.056;17.056;2022-10-22T08:35:27;28.30;;;15.93;;
62687;SDS011;48752;51.056;17.056;2022-10-22T08:37:52;19.27;;;13.02;;
62687;SDS011;48752;51.056;17.056;2022-10-22T08:40:36;17.02;;;12.10;;
62687;SDS011;48752;51.056;17.056;2022-10-22T08:43:16;19.13;;;11.93;;
62687;SDS011;48752;51.056;17.056;2022-10-22T08:48:31;24.00;;;14.48;;
62687;SDS011;48752;51.056;17.056;2022-10-22T08:51:00;26.50;;;12.82;;
62687;SDS011;48752;51.056;17.056;2022-10-22T08:53:28;32.20;;;14.23;;
62687;SDS011;48752;51.056;17.056;2022-10-22T08:56:03;25.95;;;13.45;;
62687;SDS011;48752;51.056;17.056;2022-10-22T09:01:40;18.08;;;10.80;;
62687;SDS011;48752;51.056;17.056;2022-10-22T09:04:12;21.83;;;11.63;;
62687;SDS011;48752;51.056;17.056;2022-10-22T09:06:43;22.58;;;12.85;;
62687;SDS011;48752;51.056;17.056;2022-10-22T09:09:14;26.30;;;12.23;;
62687;SDS011;48752;51.056;17.056;2022-10-22T09:14:12;23.70;;;12.02;;
62687;SDS011;48752;51.056;17.056;2022-10-22T09:24:48;59.42;;;18.58;;
62687;SDS011;48752;51.056;17.056;2022-10-22T09:27:19;73.97;;;17.73;;
62687;SDS011;48752;51.056;17.056;2022-10-22T09:29:47;39.92;;;15.43;;
62687;SDS011;48752;51.056;17.056;2022-10-22T09:32:13;71.25;;;18.90;;
62687;SDS011;48752;51.056;17.056;2022-10-22T09:34:40;36.45;;;16.20;;
62687;SDS011;48752;51.056;17.056;2022-10-22T09:37:09;39.63;;;14.63;;
62687;SDS011;48752;51.056;17.056;2022-10-22T09:39:43;38.72;;;17.20;;
62687;SDS011;48752;51.056;17.056;2022-10-22T09:42:10;36.10;;;15.35;;
62687;SDS011;48752;51.056;17.056;2022-10-22T09:44:38;43.15;;;16.05;;
62687;SDS011;48752;51.056;17.056;2022-10-22T09:47:24;86.45;;;22.17;;
62687;SDS011;48752;51.056;17.056;2022-10-22T09:52:57;61.30;;;16.92;;
62687;SDS011;48752;51.056;17.056;2022-10-22T09:55:37;28.00;;;14.70;;
62687;SDS011;48752;51.056;17.056;2022-10-22T09:58:03;30.33;;;14.10;;
62687;SDS011;48752;51.056;17.056;2022-10-22T10:00:29;38.72;;;15.70;;
62687;SDS011;48752;51.056;17.056;2022-10-22T10:02:55;23.15;;;12.13;;
62687;SDS011;48752;51.056;17.056;2022-10-22T10:05:29;24.63;;;12.90;;
62687;SDS011;48752;51.056;17.056;2022-10-22T10:07:56;30.02;;;14.20;;
62687;SDS011;48752;51.056;17.056;2022-10-22T10:10:34;33.35;;;14.45;;
62687;SDS011;48752;51.056;17.056;2022-10-22T10:13:15;28.05;;;13.85;;
62687;SDS011;48752;51.056;17.056;2022-10-22T10:21:39;23.13;;;12.48;;
62687;SDS011;48752;51.056;17.056;2022-10-22T10:24:12;24.08;;;13.93;;
62687;SDS011;48752;51.056;17.056;2022-10-22T10:27:01;23.20;;;12.63;;
62687;SDS011;48752;51.056;17.056;2022-10-22T10:29:46;21.48;;;12.55;;
62687;SDS011;48752;51.056;17.056;2022-10-22T10:40:49;21.30;;;11.95;;
62687;SDS011;48752;51.056;17.056;2022-10-22T10:58:55;19.17;;;12.10;;
62687;SDS011;48752;51.056;17.056;2022-10-22T11:06:50;23.77;;;14.02;;
62687;SDS011;48752;51.056;17.056;2022-10-22T11:12:30;22.10;;;14.18;;
62687;SDS011;48752;51.056;17.056;2022-10-22T11:15:20;30.73;;;14.30;;
62687;SDS011;48752;51.056;17.056;2022-10-22T11:18:00;20.42;;;13.50;;
62687;SDS011;48752;51.056;17.056;2022-10-22T11:23:01;22.90;;;14.10;;
62687;SDS011;48752;51.056;17.056;2022-10-22T11:25:32;28.45;;;13.80;;
62687;SDS011;48752;51.056;17.056;2022-10-22T11:28:07;21.90;;;12.63;;
62687;SDS011;48752;51.056;17.056;2022-10-22T11:30:36;23.23;;;13.45;;
62687;SDS011;48752;51.056;17.056;2022-10-22T11:33:06;22.15;;;12.63;;
62687;SDS011;48752;51.056;17.056;2022-10-22T11:35:43;79.10;;;18.83;;
62687;SDS011;48752;51.056;17.056;2022-10-22T11:38:11;60.28;;;18.50;;
62687;SDS011;48752;51.056;17.056;2022-10-22T11:40:55;21.05;;;13.05;;
62687;SDS011;48752;51.056;17.056;2022-10-22T11:45:57;20.35;;;13.25;;
62687;SDS011;48752;51.056;17.056;2022-10-22T11:48:27;22.83;;;13.55;;
62687;SDS011;48752;51.056;17.056;2022-10-22T11:50:59;17.83;;;13.52;;
62687;SDS011;48752;51.056;17.056;2022-10-22T11:56:02;22.05;;;14.00;;
62687;SDS011;48752;51.056;17.056;2022-10-22T12:01:21;19.58;;;12.75;;
62687;SDS011;48752;51.056;17.056;2022-10-22T12:06:18;19.88;;;11.35;;
62687;SDS011;48752;51.056;17.056;2022-10-22T12:11:20;20.33;;;12.27;;
62687;SDS011;48752;51.056;17.056;2022-10-22T12:13:51;17.60;;;10.70;;
62687;SDS011;48752;51.056;17.056;2022-10-22T12:16:17;14.45;;;8.63;;
62687;SDS011;48752;51.056;17.056;2022-10-22T12:18:45;12.48;;;7.60;;
62687;SDS011;48752;51.056;17.056;2022-10-22T12:21:11;11.45;;;6.63;;
62687;SDS011;48752;51.056;17.056;2022-10-22T12:23:38;15.05;;;7.75;;
62687;SDS011;48752;51.056;17.056;2022-10-22T12:26:03;12.77;;;7.50;;
62687;SDS011;48752;51.056;17.056;2022-10-22T12:28:36;12.88;;;7.63;;
62687;SDS011;48752;51.056;17.056;2022-10-22T12:31:05;14.73;;;7.93;;
62687;SDS011;48752;51.056;17.056;2022-10-22T12:33:30;11.73;;;7.10;;
62687;SDS011;48752;51.056;17.056;2022-10-22T12:35:56;8.43;;;5.95;;
62687;SDS011;48752;51.056;17.056;2022-10-22T12:38:24;10.13;;;6.03;;
62687;SDS011;48752;51.056;17.056;2022-10-22T12:40:50;9.68;;;5.95;;
62687;SDS011;48752;51.056;17.056;2022-10-22T12:43:23;8.30;;;6.00;;
62687;SDS011;48752;51.056;17.056;2022-10-22T12:45:52;10.52;;;5.65;;
62687;SDS011;48752;51.056;17.056;2022-10-22T12:48:20;8.05;;;5.35;;
62687;SDS011;48752;51.056;17.056;2022-10-22T12:50:48;11.27;;;5.78;;
62687;SDS011;48752;51.056;17.056;2022-10-22T12:53:17;8.57;;;5.15;;
62687;SDS011;48752;51.056;17.056;2022-10-22T12:55:56;7.32;;;5.90;;
62687;SDS011;48752;51.056;17.056;2022-10-22T12:58:26;8.20;;;6.30;;
62687;SDS011;48752;51.056;17.056;2022-10-22T13:00:58;9.93;;;5.90;;
62687;SDS011;48752;51.056;17.056;2022-10-22T13:03:31;12.35;;;6.20;;
62687;SDS011;48752;51.056;17.056;2022-10-22T13:08:38;10.48;;;6.40;;
62687;SDS011;48752;51.056;17.056;2022-10-22T13:11:08;12.98;;;6.68;;
62687;SDS011;48752;51.056;17.056;2022-10-22T13:18:37;14.27;;;8.52;;
62687;SDS011;48752;51.056;17.056;2022-10-22T13:21:03;15.25;;;8.05;;
62687;SDS011;48752;51.056;17.056;2022-10-22T13:23:30;14.07;;;8.75;;
62687;SDS011;48752;51.056;17.056;2022-10-22T13:28:25;11.80;;;7.95;;
62687;SDS011;48752;51.056;17.056;2022-10-22T13:30:52;16.08;;;9.30;;
62687;SDS011;48752;51.056;17.056;2022-10-22T13:33:26;14.07;;;9.00;;
62687;SDS011;48752;51.056;17.056;2022-10-22T13:35:54;15.50;;;9.90;;
62687;SDS011;48752;51.056;17.056;2022-10-22T13:38:21;11.95;;;8.88;;
62687;SDS011;48752;51.056;17.056;2022-10-22T13:40:48;14.63;;;8.48;;
62687;SDS011;48752;51.056;17.056;2022-10-22T13:43:14;15.77;;;8.70;;
62687;SDS011;48752;51.056;17.056;2022-10-22T13:45:39;15.10;;;10.05;;
62687;SDS011;48752;51.056;17.056;2022-10-22T13:48:05;14.95;;;8.15;;
62687;SDS011;48752;51.056;17.056;2022-10-22T13:50:32;14.43;;;9.88;;
62687;SDS011;48752;51.056;17.056;2022-10-22T13:52:57;13.40;;;8.20;;
62687;SDS011;48752;51.056;17.056;2022-10-22T13:55:27;10.52;;;8.50;;
62687;SDS011;48752;51.056;17.056;2022-10-22T13:57:54;12.25;;;8.43;;
62687;SDS011;48752;51.056;17.056;2022-10-22T14:00:21;13.75;;;8.77;;
62687;SDS011;48752;51.056;17.056;2022-10-22T14:02:47;16.02;;;8.48;;
62687;SDS011;48752;51.056;17.056;2022-10-22T14:05:15;15.05;;;9.00;;
62687;SDS011;48752;51.056;17.056;2022-10-22T14:07:41;13.68;;;9.57;;
62687;SDS011;48752;51.056;17.056;2022-10-22T14:10:23;11.63;;;9.30;;
62687;SDS011;48752;51.056;17.056;2022-10-22T14:12:49;12.63;;;8.85;;
62687;SDS011;48752;51.056;17.056;2022-10-22T14:15:16;17.17;;;9.52;;
62687;SDS011;48752;51.056;17.056;2022-10-22T14:17:44;14.68;;;9.38;;
62687;SDS011;48752;51.056;17.056;2022-10-22T14:20:20;15.73;;;10.50;;
62687;SDS011;48752;51.056;17.056;2022-10-22T14:22:47;15.23;;;10.15;;
62687;SDS011;48752;51.056;17.056;2022-10-22T14:25:18;16.80;;;10.55;;
62687;SDS011;48752;51.056;17.056;2022-10-22T14:27:45;18.88;;;10.60;;
62687;SDS011;48752;51.056;17.056;2022-10-22T14:30:18;14.68;;;10.80;;
62687;SDS011;48752;51.056;17.056;2022-10-22T14:32:45;16.98;;;10.30;;
62687;SDS011;48752;51.056;17.056;2022-10-22T14:35:12;20.35;;;11.90;;
62687;SDS011;48752;51.056;17.056;2022-10-22T14:37:40;16.10;;;10.18;;
62687;SDS011;48752;51.056;17.056;2022-10-22T14:40:06;17.58;;;12.43;;
62687;SDS011;48752;51.056;17.056;2022-10-22T14:42:33;18.40;;;11.52;;
62687;SDS011;48752;51.056;17.056;2022-10-22T14:45:03;15.88;;;10.88;;
62687;SDS011;48752;51.056;17.056;2022-10-22T14:47:28;13.32;;;9.82;;
62687;SDS011;48752;51.056;17.056;2022-10-22T14:49:54;15.27;;;10.70;;
62687;SDS011;48752;51.056;17.056;2022-10-22T14:52:19;14.90;;;10.80;;
62687;SDS011;48752;51.056;17.056;2022-10-22T14:54:44;15.45;;;10.88;;
62687;SDS011;48752;51.056;17.056;2022-10-22T14:57:12;15.50;;;10.52;;
62687;SDS011;48752;51.056;17.056;2022-10-22T14:59:38;19.25;;;12.35;;
62687;SDS011;48752;51.056;17.056;2022-10-22T15:02:04;18.85;;;12.15;;
62687;SDS011;48752;51.056;17.056;2022-10-22T15:04:29;18.10;;;11.63;;
62687;SDS011;48752;51.056;17.056;2022-10-22T15:06:54;19.25;;;12.23;;
62687;SDS011;48752;51.056;17.056;2022-10-22T15:09:21;16.08;;;10.32;;
62687;SDS011;48752;51.056;17.056;2022-10-22T15:11:47;14.18;;;9.98;;
62687;SDS011;48752;51.056;17.056;2022-10-22T15:14:13;16.02;;;11.25;;
62687;SDS011;48752;51.056;17.056;2022-10-22T15:16:39;17.25;;;10.20;;
62687;SDS011;48752;51.056;17.056;2022-10-22T15:19:05;17.65;;;11.00;;
62687;SDS011;48752;51.056;17.056;2022-10-22T15:21:30;15.77;;;11.05;;
62687;SDS011;48752;51.056;17.056;2022-10-22T15:23:55;16.73;;;11.25;;
62687;SDS011;48752;51.056;17.056;2022-10-22T15:26:21;20.27;;;12.35;;
62687;SDS011;48752;51.056;17.056;2022-10-22T15:28:46;17.75;;;12.25;;
62687;SDS011;48752;51.056;17.056;2022-10-22T15:31:12;16.42;;;11.68;;
62687;SDS011;48752;51.056;17.056;2022-10-22T15:33:39;18.52;;;12.27;;
62687;SDS011;48752;51.056;17.056;2022-10-22T15:36:12;18.55;;;12.10;;
62687;SDS011;48752;51.056;17.056;2022-10-22T15:38:39;17.98;;;12.00;;
62687;SDS011;48752;51.056;17.056;2022-10-22T15:41:05;19.02;;;12.88;;
62687;SDS011;48752;51.056;17.056;2022-10-22T15:43:34;17.98;;;12.80;;
62687;SDS011;48752;51.056;17.056;2022-10-22T15:48:36;17.88;;;12.18;;
62687;SDS011;48752;51.056;17.056;2022-10-22T15:51:06;18.55;;;12.40;;
62687;SDS011;48752;51.056;17.056;2022-10-22T15:53:32;15.75;;;11.30;;
62687;SDS011;48752;51.056;17.056;2022-10-22T15:55:58;17.95;;;11.70;;
62687;SDS011;48752;51.056;17.056;2022-10-22T15:58:23;21.10;;;12.65;;
62687;SDS011;48752;51.056;17.056;2022-10-22T16:00:48;19.67;;;12.98;;
62687;SDS011;48752;51.056;17.056;2022-10-22T16:03:14;20.83;;;12.10;;
62687;SDS011;48752;51.056;17.056;2022-10-22T16:05:39;21.30;;;12.02;;